KCID

The Eastern Iowa Airport

Cedar Rapids, Iowa, USA
METAR KCID 231452Z 13007KT 10SM SCT060 BKN095 22/17 A3018 RMK AO2 SLP214 T02220172 51014
Observed Flight Rules
May-23 @ 14:52 UTC (16 minutes ago) Visual Flight Rules
Wind Visibility Clouds
130° at 7 knots 10 miles
  • Scattered at 6,000' AGL
  • Broken at 9,500' AGL
Temperatures Readings
Current 22°C / 72°F
Dewpoint 17°C / 63°F
Humidity 73%
Altimeter 30.18" Hg
Pressure 1021.4 hPa
Elevation 264
METAR KCID 231452Z 13007KT 10SM SCT060 BKN095 22/17 A3018 RMK AO2 SLP214 T02220172 51014
Observed Flight Rules
May-23 @ 14:52 UTC
(16 minutes ago)
VFR
Wind Visibility
130° at 7 knots 10 miles
Clouds
  • Scattered at 6,000' AGL
  • Broken at 9,500' AGL
Temperature Dewpoint
22°C / 72°F 17°C / 63°F
Humidity Altimeter Pressure
73% 30.18" Hg 1021.4 hPa